Time;durP1;ratioP1;P1;durP2;ratioP2;P2;SDS_P1;SDS_P2;PMS_P1;PMS_P2;Temp;Humidity;BMP_temperature;BMP_pressure;BME280_temperature;BME280_humidity;BME280_pressure;Samples;Min_cycle;Max_cycle;Signal;HPM_P1;HPM_P2
2022/02/24 00:04:29;;;;;;;6.18;3.25;;;10.00;82.60;;;;;;10039236;28;20042;-64
2022/02/24 00:09:20;;;;;;;5.93;3.42;;;10.00;83.50;;;;;;10047326;28;20026;-63
2022/02/24 00:14:11;;;;;;;5.10;2.70;;;9.90;82.80;;;;;;10049184;28;20053;-63
2022/02/24 00:19:02;;;;;;;6.15;3.60;;;9.80;83.10;;;;;;10049535;28;20030;-63
2022/02/24 00:23:52;;;;;;;5.70;3.50;;;9.80;83.10;;;;;;10046547;28;20656;-63
2022/02/24 00:28:43;;;;;;;5.78;3.60;;;9.80;83.20;;;;;;10047446;28;20025;-63
2022/02/24 00:33:34;;;;;;;4.93;3.00;;;9.70;83.40;;;;;;10046343;28;20104;-63
2022/02/24 00:38:25;;;;;;;8.07;4.15;;;9.70;83.40;;;;;;10044187;28;20108;-68
2022/02/24 00:43:16;;;;;;;5.45;3.75;;;9.60;83.80;;;;;;10047734;28;20476;-65
2022/02/24 00:48:08;;;;;;;6.70;3.53;;;9.60;83.90;;;;;;10046552;28;20079;-64
2022/02/24 00:52:59;;;;;;;5.57;3.65;;;9.50;84.30;;;;;;10049498;28;20039;-63
2022/02/24 00:57:49;;;;;;;4.90;2.78;;;9.50;84.40;;;;;;10043144;28;20026;-62
2022/02/24 01:02:40;;;;;;;4.38;2.95;;;9.50;84.70;;;;;;10041754;28;20403;-63
2022/02/24 01:07:31;;;;;;;5.53;2.97;;;9.60;84.60;;;;;;10049160;28;20033;-64
2022/02/24 01:12:21;;;;;;;5.30;3.67;;;9.60;84.80;;;;;;10044856;28;20052;-64
2022/02/24 01:17:12;;;;;;;4.32;2.97;;;9.60;85.00;;;;;;10047439;28;20036;-63
2022/02/24 01:22:03;;;;;;;5.45;3.45;;;9.70;84.90;;;;;;10050420;28;20457;-63
2022/02/24 01:26:53;;;;;;;6.10;3.30;;;9.60;85.10;;;;;;10047675;28;20600;-63
2022/02/24 01:31:44;;;;;;;5.32;3.25;;;9.60;85.40;;;;;;10047841;28;20041;-62
2022/02/24 01:36:35;;;;;;;4.57;3.00;;;9.50;85.40;;;;;;10046604;28;20423;-63
2022/02/24 01:41:26;;;;;;;4.13;2.80;;;9.50;85.50;;;;;;10046298;28;20403;-61
2022/02/24 01:46:17;;;;;;;6.90;2.80;;;9.40;85.80;;;;;;10047104;28;20535;-63
2022/02/24 01:51:09;;;;;;;5.40;3.00;;;9.30;86.10;;;;;;10046291;28;20024;-64
2022/02/24 01:56:00;;;;;;;5.88;2.80;;;9.40;86.20;;;;;;10044720;28;20423;-61
2022/02/24 02:00:51;;;;;;;5.50;2.80;;;9.40;86.20;;;;;;10047010;28;20028;-63
2022/02/24 02:05:42;;;;;;;10.18;3.78;;;9.30;86.30;;;;;;10047764;28;20033;-62
2022/02/24 02:10:32;;;;;;;4.35;2.55;;;9.40;86.30;;;;;;10060111;28;20029;-64
2022/02/24 02:15:24;;;;;;;5.15;2.83;;;9.30;86.60;;;;;;10058337;28;20053;-63
2022/02/24 02:20:15;;;;;;;4.00;2.80;;;9.30;86.80;;;;;;10054078;28;20029;-63
2022/02/24 02:25:07;;;;;;;4.55;2.90;;;9.30;86.80;;;;;;10058429;28;20048;-64
2022/02/24 02:29:58;;;;;;;4.22;2.60;;;9.20;86.90;;;;;;10058909;28;20595;-61
2022/02/24 02:34:49;;;;;;;6.15;2.80;;;9.30;87.00;;;;;;10058997;28;20128;-64
2022/02/24 02:39:39;;;;;;;5.47;2.92;;;9.30;87.30;;;;;;10054584;28;20072;-64
2022/02/24 02:44:30;;;;;;;4.95;3.17;;;9.30;87.40;;;;;;10059351;28;20051;-64
2022/02/24 02:49:21;;;;;;;4.45;2.80;;;9.30;87.50;;;;;;10057239;28;20056;-64
2022/02/24 02:54:12;;;;;;;4.55;3.05;;;9.10;87.40;;;;;;10056670;28;20029;-63
2022/02/24 02:59:02;;;;;;;6.15;2.78;;;9.00;87.60;;;;;;10055697;28;20037;-65
2022/02/24 03:03:54;;;;;;;4.07;2.70;;;8.90;87.60;;;;;;10057279;28;20033;-63
2022/02/24 03:08:44;;;;;;;7.10;2.50;;;8.80;87.60;;;;;;10058069;28;20115;-64
2022/02/24 03:13:35;;;;;;;4.82;2.35;;;8.70;87.80;;;;;;10060571;28;20471;-63
2022/02/24 03:18:26;;;;;;;4.13;2.65;;;8.70;88.20;;;;;;10046444;28;20276;-63
2022/02/24 03:23:17;;;;;;;4.95;2.92;;;8.70;87.90;;;;;;10046536;28;20370;-62
2022/02/24 03:28:08;;;;;;;4.72;2.17;;;8.80;87.80;;;;;;10050124;28;20026;-62
2022/02/24 03:33:01;;;;;;;4.32;1.95;;;8.80;88.10;;;;;;10053132;28;20038;-63
2022/02/24 03:37:52;;;;;;;3.33;2.60;;;8.80;88.20;;;;;;10048886;28;20022;-63
2022/02/24 03:42:44;;;;;;;3.65;2.30;;;8.70;88.10;;;;;;10049825;28;20408;-64
2022/02/24 03:47:34;;;;;;;4.63;2.45;;;8.60;88.00;;;;;;10043462;28;20120;-63
2022/02/24 03:52:25;;;;;;;4.25;2.38;;;8.50;88.20;;;;;;10051500;28;20611;-63
2022/02/24 03:57:17;;;;;;;3.00;2.20;;;8.40;88.30;;;;;;10050483;28;20025;-63
2022/02/24 04:02:08;;;;;;;2.80;2.00;;;8.30;88.70;;;;;;10050853;28;20025;-63
2022/02/24 04:06:59;;;;;;;3.80;2.08;;;9.20;89.10;;;;;;10049446;28;20025;-64
2022/02/24 04:11:50;;;;;;;3.10;1.95;;;8.10;88.80;;;;;;10044555;28;20445;-65
2022/02/24 04:16:41;;;;;;;3.85;2.05;;;8.20;89.10;;;;;;10044262;28;20388;-63
2022/02/24 04:21:32;;;;;;;3.60;2.25;;;8.10;89.10;;;;;;10047663;28;20160;-65
2022/02/24 04:26:22;;;;;;;4.22;2.75;;;8.10;88.90;;;;;;10050618;28;20048;-62
2022/02/24 04:31:13;;;;;;;4.82;2.13;;;8.10;89.10;;;;;;10050307;28;20053;-63
2022/02/24 04:36:04;;;;;;;5.30;2.28;;;8.20;88.80;;;;;;10048453;28;20029;-62
2022/02/24 04:40:54;;;;;;;5.63;2.58;;;8.10;88.70;;;;;;10048940;28;20106;-64
2022/02/24 04:45:45;;;;;;;3.78;2.55;;;8.10;89.20;;;;;;10048273;28;20033;-61
2022/02/24 04:50:36;;;;;;;5.30;2.55;;;8.20;89.00;;;;;;10048125;28;20027;-64
2022/02/24 04:55:26;;;;;;;4.32;2.50;;;8.20;89.20;;;;;;10030579;28;20022;-63
2022/02/24 05:00:17;;;;;;;3.65;2.38;;;8.20;89.70;;;;;;10047096;28;20515;-64
2022/02/24 05:05:08;;;;;;;2.92;2.20;;;8.20;89.20;;;;;;10049180;28;20033;-63
2022/02/24 05:10:00;;;;;;;3.05;2.03;;;8.20;89.30;;;;;;10051821;28;20388;-64
2022/02/24 05:14:51;;;;;;;2.53;1.85;;;8.10;89.50;;;;;;10048186;28;20077;-63
2022/02/24 05:19:41;;;;;;;3.03;2.20;;;8.20;89.70;;;;;;10047272;28;20527;-63
2022/02/24 05:24:32;;;;;;;3.88;2.33;;;8.20;89.70;;;;;;10048820;28;20523;-62
2022/02/24 05:29:23;;;;;;;4.30;1.83;;;8.20;90.00;;;;;;10048224;28;20030;-62
2022/02/24 05:34:13;;;;;;;4.10;3.10;;;8.10;90.10;;;;;;10044271;28;20029;-62
2022/02/24 05:39:04;;;;;;;4.07;2.08;;;8.00;90.10;;;;;;10044565;28;20286;-62
2022/02/24 05:43:55;;;;;;;4.90;2.53;;;8.00;90.10;;;;;;10043908;28;20096;-62
2022/02/24 05:48:46;;;;;;;2.97;2.03;;;8.00;90.20;;;;;;10048397;28;20025;-63
2022/02/24 05:53:37;;;;;;;4.50;2.35;;;7.90;90.20;;;;;;10048389;28;20025;-62
2022/02/24 05:58:28;;;;;;;7.57;2.63;;;7.90;90.10;;;;;;10033876;28;20484;-63
2022/02/24 06:03:19;;;;;;;5.28;2.47;;;7.90;90.20;;;;;;10045817;28;20285;-61
2022/02/24 06:08:09;;;;;;;6.82;2.42;;;7.90;90.30;;;;;;10040477;28;20060;-64
2022/02/24 06:13:00;;;;;;;4.25;2.50;;;7.90;90.30;;;;;;10045142;28;20050;-66
2022/02/24 06:17:51;;;;;;;5.50;2.88;;;7.90;90.10;;;;;;10047080;28;20095;-63
2022/02/24 06:22:42;;;;;;;3.85;2.67;;;7.80;90.20;;;;;;10042273;28;20029;-62
2022/02/24 06:27:32;;;;;;;5.82;2.80;;;7.80;90.20;;;;;;10045230;28;20156;-63
2022/02/24 06:32:23;;;;;;;3.95;2.83;;;7.80;90.30;;;;;;10032730;28;20049;-63
2022/02/24 06:37:14;;;;;;;4.80;2.83;;;7.70;90.40;;;;;;10043915;28;20396;-62
2022/02/24 06:42:05;;;;;;;7.18;2.70;;;7.60;90.40;;;;;;10043781;28;20029;-63
2022/02/24 06:46:56;;;;;;;6.20;2.92;;;7.70;90.40;;;;;;10039085;28;20033;-65
2022/02/24 06:51:47;;;;;;;7.85;3.42;;;7.70;90.40;;;;;;10046092;28;20026;-65
2022/02/24 06:56:38;;;;;;;5.13;3.03;;;7.80;90.50;;;;;;10054277;28;20080;-65
2022/02/24 07:01:28;;;;;;;7.38;3.15;;;7.80;90.40;;;;;;10048638;28;20030;-63
2022/02/24 07:06:19;;;;;;;7.65;3.80;;;7.80;90.50;;;;;;10052523;28;20080;-64
2022/02/24 07:11:10;;;;;;;6.15;2.65;;;7.80;90.50;;;;;;10047392;28;20368;-63
2022/02/24 07:16:01;;;;;;;4.93;2.65;;;7.80;90.70;;;;;;10052274;28;20061;-63
2022/02/24 07:20:51;;;;;;;4.68;3.28;;;7.80;90.70;;;;;;10041697;28;20014;-64
2022/02/24 07:25:42;;;;;;;4.47;2.72;;;7.70;90.70;;;;;;10051945;28;20105;-64
2022/02/24 07:30:33;;;;;;;5.15;2.95;;;7.90;90.70;;;;;;10042564;28;20503;-61
2022/02/24 07:35:24;;;;;;;3.70;2.53;;;7.90;90.70;;;;;;10037293;28;20037;-61
2022/02/24 07:40:14;;;;;;;6.60;2.67;;;7.80;90.80;;;;;;10037126;28;20043;-62
2022/02/24 07:45:07;;;;;;;3.67;2.45;;;7.90;90.80;;;;;;10039670;28;20069;-62
2022/02/24 07:49:59;;;;;;;6.18;2.97;;;8.10;90.70;;;;;;10038003;28;20030;-62
2022/02/24 07:54:50;;;;;;;5.70;2.10;;;8.20;90.60;;;;;;10032573;28;20117;-63
2022/02/24 07:59:41;;;;;;;3.25;2.30;;;8.20;90.60;;;;;;10033498;28;20437;-62
2022/02/24 08:04:31;;;;;;;5.00;2.63;;;8.40;90.60;;;;;;10046436;28;20029;-62
2022/02/24 08:09:22;;;;;;;5.20;2.38;;;8.60;90.50;;;;;;10048510;28;20052;-62
2022/02/24 08:14:13;;;;;;;3.58;2.03;;;8.70;90.40;;;;;;10049948;28;20061;-61
2022/02/24 08:19:04;;;;;;;4.18;2.15;;;8.90;90.30;;;;;;10049879;28;20230;-63
2022/02/24 08:23:55;;;;;;;3.17;2.05;;;9.10;90.30;;;;;;10048444;28;20041;-62
2022/02/24 08:28:46;;;;;;;4.53;2.10;;;9.20;90.20;;;;;;10041715;28;20029;-62
2022/02/24 08:33:37;;;;;;;2.42;1.85;;;9.20;90.10;;;;;;10046872;28;20052;-62
2022/02/24 08:38:27;;;;;;;2.95;2.00;;;9.20;90.20;;;;;;10047154;28;20084;-62
2022/02/24 08:43:20;;;;;;;4.05;2.30;;;9.30;90.10;;;;;;10046005;28;20365;-63
2022/02/24 08:48:11;;;;;;;2.03;1.50;;;9.00;90.00;;;;;;10047590;28;20183;-63
2022/02/24 08:53:03;;;;;;;5.25;1.67;;;9.60;89.90;;;;;;10047666;28;20648;-63
2022/02/24 08:57:54;;;;;;;5.00;1.63;;;9.70;89.70;;;;;;10047736;28;20048;-64
2022/02/24 09:02:45;;;;;;;1.95;1.50;;;9.80;89.50;;;;;;10044885;28;20036;-65
2022/02/24 09:07:35;;;;;;;3.47;2.20;;;9.80;89.20;;;;;;10048879;28;20049;-63
2022/02/24 09:12:26;;;;;;;4.32;2.10;;;9.70;88.90;;;;;;10039440;28;20038;-63
2022/02/24 09:17:17;;;;;;;5.30;2.15;;;9.60;89.20;;;;;;10042816;28;20028;-63
2022/02/24 09:22:08;;;;;;;5.70;3.38;;;9.60;89.30;;;;;;10043585;28;20025;-61
2022/02/24 09:26:59;;;;;;;5.65;2.80;;;9.80;89.00;;;;;;10045386;28;20045;-61
2022/02/24 09:31:50;;;;;;;3.70;2.53;;;9.80;88.70;;;;;;10047324;28;20119;-63
2022/02/24 09:36:40;;;;;;;3.28;2.08;;;9.70;88.90;;;;;;10047842;28;20036;-64
2022/02/24 09:41:31;;;;;;;5.53;2.85;;;9.90;88.80;;;;;;10042017;28;20026;-66
2022/02/24 09:46:22;;;;;;;4.65;2.28;;;10.00;88.60;;;;;;10043670;28;20048;-63
2022/02/24 09:51:15;;;;;;;3.47;2.55;;;10.10;88.40;;;;;;10047416;28;20033;-64
2022/02/24 09:56:16;;;;;;;7.95;3.10;;;10.30;87.80;;;;;;10042639;28;20407;-65
2022/02/24 10:01:08;;;;;;;4.82;2.40;;;10.50;88.00;;;;;;10044790;28;20400;-64
2022/02/24 10:06:01;;;;;;;4.20;2.30;;;10.70;87.60;;;;;;10048170;28;20029;-62
2022/02/24 10:10:51;;;;;;;4.68;2.72;;;10.60;87.60;;;;;;10044451;28;20029;-63
2022/02/24 10:15:51;;;;;;;5.00;2.72;;;10.50;87.80;;;;;;10043302;28;20045;-64
2022/02/24 10:20:47;;;;;;;4.22;2.97;;;10.60;87.70;;;;;;10045848;28;20100;-63
2022/02/24 10:25:51;;;;;;;4.13;2.72;;;10.70;87.30;;;;;;10044060;28;20030;-64
2022/02/24 10:30:51;;;;;;;4.53;2.75;;;10.90;86.60;;;;;;10053733;28;20052;-65
2022/02/24 10:35:43;;;;;;;4.40;2.35;;;10.80;86.90;;;;;;10046332;28;20613;-63
2022/02/24 10:40:49;;;;;;;4.32;2.65;;;11.00;86.70;;;;;;10055343;28;20575;-64
2022/02/24 10:45:41;;;;;;;4.80;2.97;;;11.30;85.90;;;;;;10052781;28;20458;-64
2022/02/24 10:50:55;;;;;;;6.65;2.08;;;11.40;85.80;;;;;;10050788;28;20235;-64
2022/02/24 10:55:52;;;;;;;5.45;2.50;;;11.50;85.10;;;;;;10052414;28;20022;-63
2022/02/24 11:00:43;;;;;;;5.95;3.00;;;11.60;85.30;;;;;;10065794;28;20043;-64
2022/02/24 11:05:36;;;;;;;5.55;2.80;;;11.80;84.60;;;;;;10049673;28;20030;-63
2022/02/24 11:10:27;;;;;;;6.80;3.00;;;11.80;84.50;;;;;;10053439;28;20455;-64
2022/02/24 11:15:18;;;;;;;5.70;2.30;;;11.80;83.90;;;;;;10053580;28;20049;-66
2022/02/24 11:20:09;;;;;;;5.80;2.53;;;11.80;84.10;;;;;;10051758;28;20105;-63
2022/02/24 11:25:01;;;;;;;4.38;2.40;;;11.90;83.90;;;;;;10049458;28;20487;-64
2022/02/24 11:30:05;;;;;;;5.07;1.73;;;12.00;83.40;;;;;;10048963;28;20404;-65
2022/02/24 11:35:07;;;;;;;6.88;2.10;;;12.10;83.20;;;;;;10052939;28;20355;-67
2022/02/24 11:40:18;;;;;;;3.85;2.03;;;12.40;82.60;;;;;;10052155;28;20109;-67
2022/02/24 11:45:24;;;;;;;5.40;1.95;;;12.60;82.40;;;;;;10054792;28;20055;-69
2022/02/24 11:50:15;;;;;;;2.58;1.58;;;12.50;82.40;;;;;;10052898;28;20031;-65
2022/02/24 11:55:06;;;;;;;4.95;2.17;;;12.30;82.70;;;;;;10052826;28;20026;-64
2022/02/24 11:59:59;;;;;;;9.38;2.30;;;12.10;82.60;;;;;;10050079;28;20502;-66
2022/02/24 12:04:49;;;;;;;3.67;2.13;;;12.10;82.50;;;;;;10050337;28;20065;-65
2022/02/24 12:09:41;;;;;;;3.15;1.77;;;12.20;82.10;;;;;;10051714;28;20021;-66
2022/02/24 12:14:34;;;;;;;2.10;1.35;;;12.40;81.70;;;;;;10047011;28;20037;-68
2022/02/24 12:19:44;;;;;;;7.35;1.73;;;12.40;81.50;;;;;;10049698;28;20048;-65
2022/02/24 12:24:34;;;;;;;6.53;2.47;;;12.40;81.30;;;;;;10044911;28;20038;-66
2022/02/24 12:29:39;;;;;;;7.80;2.85;;;12.20;81.50;;;;;;10045598;28;20392;-67
2022/02/24 12:34:31;;;;;;;3.67;1.90;;;12.30;81.20;;;;;;10046785;28;20126;-65
2022/02/24 12:39:22;;;;;;;3.60;1.65;;;12.40;80.90;;;;;;10047635;28;20107;-62
2022/02/24 12:44:28;;;;;;;4.82;1.48;;;12.50;80.40;;;;;;10048093;28;20124;-64
2022/02/24 12:49:19;;;;;;;2.60;1.20;;;12.60;79.50;;;;;;10047881;28;20026;-66
2022/02/24 12:54:15;;;;;;;4.40;1.45;;;12.60;79.70;;;;;;10046185;28;20033;-64
2022/02/24 12:59:18;;;;;;;2.63;1.38;;;12.80;79.70;;;;;;10048040;28;20423;-70
2022/02/24 13:04:15;;;;;;;1.90;1.10;;;13.00;79.40;;;;;;10046438;28;20168;-66
2022/02/24 13:14:19;;;;;;;8.23;3.13;;;13.20;79.00;;;;;;10048057;28;20092;-68
2022/02/24 13:19:16;;;;;;;2.15;1.33;;;13.10;79.10;;;;;;10045170;28;20072;-64
2022/02/24 13:24:06;;;;;;;4.53;1.58;;;13.00;78.80;;;;;;10045597;28;20036;-65
2022/02/24 13:28:59;;;;;;;1.00;0.70;;;13.10;78.30;;;;;;10045426;28;20039;-64
2022/02/24 13:33:50;;;;;;;3.92;1.00;;;13.30;77.80;;;;;;10047308;28;20013;-65
2022/02/24 13:38:42;;;;;;;2.60;0.80;;;13.60;77.40;;;;;;10047599;28;20373;-63
2022/02/24 13:43:47;;;;;;;2.13;1.10;;;13.70;76.90;;;;;;10043847;28;20026;-64
2022/02/24 13:48:45;;;;;;;2.83;1.00;;;13.80;76.60;;;;;;10045637;28;20056;-64
2022/02/24 13:53:36;;;;;;;1.05;0.90;;;13.80;76.40;;;;;;10038086;28;20536;-62
2022/02/24 13:58:29;;;;;;;1.80;0.88;;;13.80;76.10;;;;;;10033372;28;20033;-64
2022/02/24 14:03:28;;;;;;;3.03;1.50;;;13.60;76.00;;;;;;10046555;28;20033;-63
2022/02/24 14:08:19;;;;;;;1.90;0.75;;;13.50;76.00;;;;;;10037686;28;20037;-66
2022/02/24 14:13:10;;;;;;;2.40;0.85;;;13.30;76.10;;;;;;10046808;28;20053;-65
2022/02/24 14:18:00;;;;;;;6.30;0.93;;;13.20;76.40;;;;;;10045115;28;20038;-64
2022/02/24 14:22:54;;;;;;;4.80;1.83;;;13.20;76.20;;;;;;10045016;28;20120;-64
2022/02/24 14:27:45;;;;;;;2.38;1.67;;;13.10;76.20;;;;;;10044843;28;20052;-63
2022/02/24 14:32:37;;;;;;;5.75;1.30;;;13.10;75.90;;;;;;10042624;28;20387;-64
2022/02/24 14:37:27;;;;;;;1.30;0.82;;;13.20;75.90;;;;;;10045217;28;20120;-61
2022/02/24 14:42:19;;;;;;;1.67;1.20;;;13.20;75.60;;;;;;10044034;28;20589;-62
2022/02/24 14:47:10;;;;;;;2.83;1.38;;;13.20;74.90;;;;;;10045926;28;20527;-64
2022/02/24 14:52:04;;;;;;;0.98;0.70;;;13.20;75.00;;;;;;10043324;28;20045;-63
2022/02/24 14:56:54;;;;;;;4.47;0.85;;;13.30;74.70;;;;;;10042616;28;20143;-64
2022/02/24 15:01:45;;;;;;;0.93;0.85;;;13.30;74.50;;;;;;10043017;28;20076;-62
2022/02/24 15:06:35;;;;;;;2.67;0.90;;;13.30;74.20;;;;;;10044877;28;20036;-65
2022/02/24 15:11:26;;;;;;;2.50;1.13;;;13.40;74.10;;;;;;10043920;28;20125;-66
2022/02/24 15:16:17;;;;;;;2.50;1.20;;;13.50;73.70;;;;;;10047575;28;20026;-63
2022/02/24 15:21:08;;;;;;;2.17;0.90;;;13.50;73.60;;;;;;10053220;28;20546;-64
2022/02/24 15:25:58;;;;;;;1.63;0.85;;;13.50;73.30;;;;;;10047326;28;20045;-62
2022/02/24 15:30:51;;;;;;;0.80;0.60;;;13.60;72.70;;;;;;10047117;28;20043;-64
2022/02/24 15:35:42;;;;;;;1.42;1.02;;;13.70;72.20;;;;;;10048663;28;20078;-62
2022/02/24 15:40:32;;;;;;;1.30;0.80;;;13.80;71.40;;;;;;10050788;28;20034;-63
2022/02/24 15:45:24;;;;;;;2.10;0.90;;;13.80;71.40;;;;;;10050809;28;20041;-62
2022/02/24 15:50:15;;;;;;;1.90;1.65;;;13.80;70.80;;;;;;10051545;28;20032;-64
2022/02/24 15:55:07;;;;;;;1.90;1.00;;;14.20;69.60;;;;;;10049576;28;20013;-63
2022/02/24 16:00:08;;;;;;;1.30;0.75;;;13.80;69.60;;;;;;10049716;28;20511;-63
2022/02/24 16:04:59;;;;;;;1.73;0.85;;;13.50;70.40;;;;;;10049086;28;20045;-64
2022/02/24 16:09:50;;;;;;;0.65;0.65;;;13.30;70.90;;;;;;10046898;28;20029;-63
2022/02/24 16:14:41;;;;;;;2.70;1.00;;;13.10;71.20;;;;;;10046882;28;20053;-63
2022/02/24 16:19:32;;;;;;;2.75;1.00;;;13.50;71.00;;;;;;10050786;28;20033;-66
2022/02/24 16:24:23;;;;;;;1.90;0.70;;;13.30;71.00;;;;;;10041758;28;20042;-65
2022/02/24 16:29:14;;;;;;;4.13;2.25;;;13.20;71.30;;;;;;10046009;28;20017;-71
2022/02/24 16:34:05;;;;;;;4.57;1.58;;;13.10;71.70;;;;;;10047060;28;20463;-66
2022/02/24 16:38:56;;;;;;;1.70;1.02;;;12.90;71.90;;;;;;10049243;28;20036;-66
2022/02/24 16:43:48;;;;;;;3.25;0.75;;;12.90;72.10;;;;;;10047462;28;20314;-64
2022/02/24 16:48:39;;;;;;;2.33;0.80;;;12.80;72.00;;;;;;10039536;28;20056;-65
2022/02/24 16:53:30;;;;;;;3.58;1.20;;;12.60;72.10;;;;;;10049032;28;20519;-64
2022/02/24 16:58:21;;;;;;;1.55;0.77;;;12.50;72.50;;;;;;10047856;28;20147;-62
2022/02/24 17:03:12;;;;;;;1.23;0.60;;;12.30;72.60;;;;;;10046460;28;20018;-63
2022/02/24 17:08:03;;;;;;;1.65;0.65;;;12.30;72.50;;;;;;10047795;28;20037;-61
2022/02/24 17:12:55;;;;;;;2.15;1.08;;;12.20;72.50;;;;;;10046475;28;20361;-64
2022/02/24 17:17:46;;;;;;;1.42;0.63;;;12.20;72.40;;;;;;10047379;28;20352;-63
2022/02/24 17:22:36;;;;;;;1.88;0.90;;;12.10;72.40;;;;;;10041207;28;20029;-64
2022/02/24 17:27:27;;;;;;;2.97;0.93;;;12.00;72.60;;;;;;10043637;28;20037;-64
2022/02/24 17:32:18;;;;;;;2.63;1.15;;;11.90;72.70;;;;;;10044089;28;20029;-64
2022/02/24 17:37:10;;;;;;;2.92;1.10;;;11.90;72.60;;;;;;10051362;28;20032;-64
2022/02/24 17:42:00;;;;;;;3.08;1.00;;;11.80;72.70;;;;;;10043296;28;20022;-64
2022/02/24 17:46:51;;;;;;;2.28;0.82;;;11.80;72.60;;;;;;10043688;28;20043;-64
2022/02/24 17:51:42;;;;;;;3.88;1.25;;;11.90;72.50;;;;;;10044076;28;20776;-65
2022/02/24 17:56:33;;;;;;;3.08;1.00;;;11.90;72.30;;;;;;10045887;28;20040;-65
2022/02/24 18:01:24;;;;;;;1.23;0.60;;;11.80;72.40;;;;;;10042658;28;20014;-63
2022/02/24 18:06:15;;;;;;;1.85;1.00;;;11.80;72.30;;;;;;10046953;28;20038;-66
2022/02/24 18:11:09;;;;;;;1.67;0.75;;;11.80;72.40;;;;;;10045634;28;20026;-66
2022/02/24 18:16:00;;;;;;;1.73;1.10;;;11.80;72.30;;;;;;10046509;28;20037;-66
2022/02/24 18:20:51;;;;;;;1.45;0.90;;;11.80;72.30;;;;;;10045640;28;20159;-65
2022/02/24 18:25:41;;;;;;;1.40;1.10;;;11.90;72.40;;;;;;10043443;28;20073;-65
2022/02/24 18:30:32;;;;;;;3.38;0.88;;;12.00;72.30;;;;;;10044898;28;20064;-64
2022/02/24 18:35:23;;;;;;;1.25;1.08;;;12.00;72.20;;;;;;10043484;28;20022;-66
2022/02/24 18:40:13;;;;;;;1.85;0.60;;;12.00;72.20;;;;;;10045608;28;20036;-66
2022/02/24 18:45:06;;;;;;;4.43;1.73;;;12.10;72.20;;;;;;10043526;28;20038;-65
2022/02/24 18:49:57;;;;;;;2.97;0.90;;;12.10;72.00;;;;;;10051112;28;20029;-66
2022/02/24 18:54:47;;;;;;;1.30;0.50;;;12.00;72.00;;;;;;10052370;28;20044;-63
2022/02/24 18:59:38;;;;;;;0.65;0.30;;;10.70;73.70;;;;;;10051720;28;20079;-66
2022/02/24 19:04:29;;;;;;;0.20;0.20;;;9.10;78.50;;;;;;10053487;28;20232;-67
2022/02/24 19:09:20;;;;;;;0.65;0.35;;;7.90;80.90;;;;;;10054756;28;20030;-63
2022/02/24 19:14:11;;;;;;;1.08;0.22;;;7.40;84.70;;;;;;10053381;28;20053;-63
2022/02/24 19:19:02;;;;;;;0.95;0.35;;;7.20;84.40;;;;;;10052606;28;20171;-63
2022/02/24 19:23:52;;;;;;;0.70;0.40;;;7.10;85.20;;;;;;10053157;28;20037;-64
2022/02/24 19:28:43;;;;;;;1.05;0.60;;;6.90;86.70;;;;;;10065554;28;20033;-65
2022/02/24 19:33:34;;;;;;;0.88;0.30;;;6.90;86.60;;;;;;10048073;28;20184;-63
2022/02/24 19:38:25;;;;;;;0.28;0.22;;;6.80;87.20;;;;;;10048519;28;20499;-64
2022/02/24 19:43:16;;;;;;;0.45;0.20;;;6.90;87.50;;;;;;10050718;28;20018;-64
2022/02/24 19:48:06;;;;;;;0.30;0.25;;;6.90;87.60;;;;;;10052731;28;20033;-65
2022/02/24 19:52:57;;;;;;;1.23;0.50;;;6.90;87.20;;;;;;10046569;28;20038;-65
2022/02/24 19:57:48;;;;;;;0.63;0.20;;;6.80;88.10;;;;;;10052324;28;20061;-66
2022/02/24 20:02:39;;;;;;;1.85;0.40;;;6.60;88.30;;;;;;10050345;28;20033;-65
2022/02/24 20:07:32;;;;;;;0.03;0.00;;;6.50;88.80;;;;;;10054266;28;20484;-65
2022/02/24 20:12:23;;;;;;;0.90;0.30;;;6.40;89.30;;;;;;10054573;28;20181;-64
2022/02/24 20:17:14;;;;;;;2.45;0.47;;;6.10;89.30;;;;;;10051411;28;20101;-65
2022/02/24 20:22:05;;;;;;;1.05;0.30;;;6.40;88.90;;;;;;10048385;28;20121;-64
2022/02/24 20:26:55;;;;;;;0.57;0.30;;;6.30;88.80;;;;;;10045773;28;20488;-63
2022/02/24 20:31:46;;;;;;;0.45;0.40;;;6.30;89.10;;;;;;10053154;28;20513;-65
2022/02/24 20:36:37;;;;;;;0.57;0.47;;;6.20;89.40;;;;;;10052114;28;20025;-65
2022/02/24 20:41:28;;;;;;;0.80;0.30;;;6.20;89.70;;;;;;10050111;28;20036;-65
2022/02/24 20:46:18;;;;;;;0.60;0.45;;;6.10;89.50;;;;;;10049082;28;20231;-64
2022/02/24 20:51:09;;;;;;;0.93;0.25;;;6.20;90.10;;;;;;10049866;28;20051;-65
2022/02/24 20:56:00;;;;;;;0.25;0.20;;;6.20;89.80;;;;;;10050694;28;20048;-63
2022/02/24 21:00:51;;;;;;;0.20;0.20;;;6.20;89.50;;;;;;10046493;28;20373;-66
2022/02/24 21:05:41;;;;;;;0.47;0.25;;;6.40;89.30;;;;;;10043863;28;20563;-65
2022/02/24 21:10:32;;;;;;;1.10;0.50;;;6.80;88.80;;;;;;10038832;28;20017;-65
2022/02/24 21:15:23;;;;;;;0.52;0.40;;;6.90;88.10;;;;;;10048544;28;20049;-64
2022/02/24 21:20:14;;;;;;;2.75;0.60;;;6.80;88.50;;;;;;10045868;28;20027;-64
2022/02/24 21:25:06;;;;;;;0.85;0.50;;;6.80;88.40;;;;;;10047258;28;20053;-64
2022/02/24 21:29:57;;;;;;;2.47;0.88;;;7.20;89.00;;;;;;10046796;28;20574;-65
2022/02/24 21:34:48;;;;;;;0.75;0.40;;;7.00;88.60;;;;;;10044231;28;20119;-66
2022/02/24 21:39:39;;;;;;;2.75;0.30;;;7.00;88.40;;;;;;10038402;28;20033;-64
2022/02/24 21:44:30;;;;;;;0.43;0.28;;;6.90;88.60;;;;;;10045809;28;20039;-68
2022/02/24 21:49:21;;;;;;;4.47;0.52;;;6.90;88.90;;;;;;10045969;28;20057;-64
2022/02/24 21:54:12;;;;;;;0.60;0.50;;;6.90;88.50;;;;;;10040718;28;20049;-65
2022/02/24 21:59:03;;;;;;;1.92;0.35;;;6.90;88.60;;;;;;10046449;28;20037;-64
2022/02/24 22:03:54;;;;;;;2.15;0.50;;;6.70;88.90;;;;;;10047434;28;20072;-64
2022/02/24 22:08:48;;;;;;;0.55;0.52;;;6.50;89.10;;;;;;10046876;28;20053;-64
2022/02/24 22:13:39;;;;;;;0.82;0.40;;;6.40;89.30;;;;;;10045850;28;20076;-64
2022/02/24 22:18:30;;;;;;;0.88;0.60;;;6.30;89.30;;;;;;10046216;28;20056;-64
2022/02/24 22:23:20;;;;;;;2.72;0.45;;;6.10;89.50;;;;;;10047642;28;20411;-64
2022/02/24 22:28:11;;;;;;;0.28;0.20;;;6.10;89.70;;;;;;10051588;28;20111;-64
2022/02/24 22:33:02;;;;;;;0.35;0.30;;;6.20;90.00;;;;;;10044666;28;20056;-64
2022/02/24 22:37:53;;;;;;;1.45;0.30;;;6.20;89.50;;;;;;10053691;28;20038;-63
2022/02/24 22:42:43;;;;;;;0.57;0.50;;;6.20;89.30;;;;;;10050824;28;20503;-65
2022/02/24 22:47:35;;;;;;;1.13;0.43;;;6.10;89.70;;;;;;10053521;28;20390;-63
2022/02/24 22:52:25;;;;;;;1.13;0.40;;;6.20;89.60;;;;;;10045513;28;20484;-63
2022/02/24 22:57:16;;;;;;;2.45;0.47;;;6.20;89.20;;;;;;10053869;28;20044;-64
2022/02/24 23:02:07;;;;;;;1.05;0.57;;;6.30;88.70;;;;;;10052070;28;20037;-64
2022/02/24 23:06:58;;;;;;;3.03;1.20;;;6.40;88.20;;;;;;10047386;28;20045;-64
2022/02/24 23:11:48;;;;;;;1.08;0.93;;;6.50;87.60;;;;;;10053150;28;20046;-63
2022/02/24 23:16:40;;;;;;;4.63;0.68;;;6.50;87.70;;;;;;10052175;28;20037;-64
2022/02/24 23:21:30;;;;;;;1.83;0.50;;;6.50;87.30;;;;;;10051887;28;20452;-64
2022/02/24 23:26:22;;;;;;;1.95;0.60;;;6.50;87.00;;;;;;10049435;28;20564;-67
2022/02/24 23:31:13;;;;;;;1.33;0.50;;;6.50;86.70;;;;;;10057379;28;20492;-63
2022/02/24 23:36:05;;;;;;;1.13;0.73;;;6.40;86.30;;;;;;10049608;28;20025;-64
2022/02/24 23:40:56;;;;;;;3.00;0.60;;;6.30;85.70;;;;;;10064915;28;20255;-65
2022/02/24 23:45:47;;;;;;;0.82;0.50;;;6.30;85.60;;;;;;10052119;28;20117;-65
2022/02/24 23:50:38;;;;;;;4.38;1.00;;;6.20;85.00;;;;;;10050601;28;20026;-63
2022/02/24 23:55:29;;;;;;;1.00;0.47;;;6.20;84.90;;;;;;10051776;28;20033;-65
